Missouri River (Missouri), Napolean (06894650)

StateMissouriLatestUnknown (44300 cfs)
RiverMissouri RiverRatingObservedEstimated
Updated2020-09-24 18:00 (20 minutes ago)Flood - The river is flooding. Obstacles can be treacherous or deadly. The river should be avoided at this stage for casual trips and definitely for the inexperienced. Trips should be attempted only with protective gear and equipment.Flood(none)(none)
Discharge44300 cfs (median: 73200 cfs)High - The river is high and potentially dangerous, especially for the young and / or inexperienced. Normal stream obstacles are sometimes difficult to navigate. Extended distances can be attempted, but canoe travel may not be advisable.High(none)(none)
Height8.05 feetGood - Conditions are ideal for a canoe or kayak. Boats typically will drag on fewer than one-quarter of riffles, if at all, and portages are unnecessary or rare. Normal float lengths can be attempted without a problem.Good(none)(none)
TrendSteady (falling over 24 hours)Low - River is low but can still be floated. Some riffles are okay but most come with significant dragging and might need a portage. Float lengths should be reduced to accommodate low flow, dragging, and portages.Low(none)(none)
USGSExternal icon USGS Site (External icon Google Maps)Poor - River is too low to float comfortably. Most or all riffles will drag or must be portaged and some obstacles (such as slick shelf rock) cause undue problems. Avoid the river at this stage for casual paddling trips.Poor(none)(none)

Trending Data

Plot Image

Trips for Missouri River (Missouri), Napolean (06894650)

DateStartEndDistanceConditionDischargeHeightFishingDetails

A total of 0 rows are displayed.

Condition Descriptions

Fishing Conditions

Fish Species

Notes

Classic Trip List

The classic River Trips application is still available for use. It is updated with the new system using a data retrofit. It is no longer maintained. The original River Trips application is no longer updated (as of 1 Dec 2016) but can be checked for errors or for the condition of the data before it was converted to the new system.

Gauge Data Table

ObservationHeightDischargeMaximum
Discharge
Minimum
Discharge
Mean
Discharge
P05P10P20P25P50
(Median)
P75P80P90P95
2020-09-24 18:00 8.05 44300 157000 (2019) 45100 (2017) 84900 46300 48000 73200 128000 145000
2020-09-24 17:00 8.05 44300 157000 (2019) 45100 (2017) 84900 46300 48000 73200 128000 145000
2020-09-24 16:00 8.07 44400 157000 (2019) 45100 (2017) 84900 46300 48000 73200 128000 145000
2020-09-24 15:00 8.08 44400 157000 (2019) 45100 (2017) 84900 46300 48000 73200 128000 145000
2020-09-24 14:00 8.08 44400 157000 (2019) 45100 (2017) 84900 46300 48000 73200 128000 145000
2020-09-24 13:00 8.08 44400 157000 (2019) 45100 (2017) 84900 46300 48000 73200 128000 145000
2020-09-24 12:00 8.07 44400 157000 (2019) 45100 (2017) 84900 46300 48000 73200 128000 145000
2020-09-24 11:00 8.05 44300 157000 (2019) 45100 (2017) 84900 46300 48000 73200 128000 145000
2020-09-24 10:00 8.06 44300 157000 (2019) 45100 (2017) 84900 46300 48000 73200 128000 145000
2020-09-24 09:00 8.08 44400 157000 (2019) 45100 (2017) 84900 46300 48000 73200 128000 145000
2020-09-24 08:00 8.07 44400 157000 (2019) 45100 (2017) 84900 46300 48000 73200 128000 145000
2020-09-24 07:00 8.08 44400 157000 (2019) 45100 (2017) 84900 46300 48000 73200 128000 145000
2020-09-24 06:00 8.06 44300 157000 (2019) 45100 (2017) 84900 46300 48000 73200 128000 145000
2020-09-24 05:00 8.07 44400 157000 (2019) 45100 (2017) 84900 46300 48000 73200 128000 145000
2020-09-24 04:00 8.07 44400 157000 (2019) 45100 (2017) 84900 46300 48000 73200 128000 145000
2020-09-24 03:00 8.07 44400 157000 (2019) 45100 (2017) 84900 46300 48000 73200 128000 145000
2020-09-24 02:00 8.07 44400 157000 (2019) 45100 (2017) 84900 46300 48000 73200 128000 145000
2020-09-24 01:00 8.08 44400 157000 (2019) 45100 (2017) 84900 46300 48000 73200 128000 145000
2020-09-24 00:00 8.07 44400 157000 (2019) 45100 (2017) 84900 46300 48000 73200 128000 145000
2020-09-23 23:00 8.08 44400 158000 (2019) 46000 (2017) 86300 47300 49100 77300 128000 146000
2020-09-23 22:00 8.07 44400 158000 (2019) 46000 (2017) 86300 47300 49100 77300 128000 146000
2020-09-23 21:00 8.07 44400 158000 (2019) 46000 (2017) 86300 47300 49100 77300 128000 146000
2020-09-23 20:00 8.09 44500 158000 (2019) 46000 (2017) 86300 47300 49100 77300 128000 146000
2020-09-23 19:00 8.06 44300 158000 (2019) 46000 (2017) 86300 47300 49100 77300 128000 146000
2020-09-23 18:00 8.05 44300 158000 (2019) 46000 (2017) 86300 47300 49100 77300 128000 146000
2020-09-23 17:00 8.10 44500 158000 (2019) 46000 (2017) 86300 47300 49100 77300 128000 146000
2020-09-23 16:00 8.08 44400 158000 (2019) 46000 (2017) 86300 47300 49100 77300 128000 146000
2020-09-23 15:00 8.09 44500 158000 (2019) 46000 (2017) 86300 47300 49100 77300 128000 146000
2020-09-23 14:00 8.08 44400 158000 (2019) 46000 (2017) 86300 47300 49100 77300 128000 146000
2020-09-23 13:00 8.07 44400 158000 (2019) 46000 (2017) 86300 47300 49100 77300 128000 146000
2020-09-23 12:00 8.07 44400 158000 (2019) 46000 (2017) 86300 47300 49100 77300 128000 146000
2020-09-23 11:00 8.06 44300 158000 (2019) 46000 (2017) 86300 47300 49100 77300 128000 146000
2020-09-23 10:00 8.07 44400 158000 (2019) 46000 (2017) 86300 47300 49100 77300 128000 146000
2020-09-23 09:00 8.05 44300 158000 (2019) 46000 (2017) 86300 47300 49100 77300 128000 146000
2020-09-23 08:00 8.05 44300 158000 (2019) 46000 (2017) 86300 47300 49100 77300 128000 146000
2020-09-23 07:00 8.03 44200 158000 (2019) 46000 (2017) 86300 47300 49100 77300 128000 146000
2020-09-23 06:00 8.06 44300 158000 (2019) 46000 (2017) 86300 47300 49100 77300 128000 146000
2020-09-23 05:00 8.06 44300 158000 (2019) 46000 (2017) 86300 47300 49100 77300 128000 146000
2020-09-23 04:00 8.07 44400 158000 (2019) 46000 (2017) 86300 47300 49100 77300 128000 146000
2020-09-23 03:00 8.03 44200 158000 (2019) 46000 (2017) 86300 47300 49100 77300 128000 146000
2020-09-23 02:00 8.05 44300 158000 (2019) 46000 (2017) 86300 47300 49100 77300 128000 146000
2020-09-23 01:00 8.07 44400 158000 (2019) 46000 (2017) 86300 47300 49100 77300 128000 146000
2020-09-23 00:00 8.07 44400 158000 (2019) 46000 (2017) 86300 47300 49100 77300 128000 146000
2020-09-22 23:00 8.04 44200 154000 (2019) 46500 (2017) 87200 48500 51400 80900 126000 143000
2020-09-22 22:00 8.07 44400 154000 (2019) 46500 (2017) 87200 48500 51400 80900 126000 143000
2020-09-22 21:00 8.06 44300 154000 (2019) 46500 (2017) 87200 48500 51400 80900 126000 143000
2020-09-22 20:00 8.06 44300 154000 (2019) 46500 (2017) 87200 48500 51400 80900 126000 143000
2020-09-22 19:00 8.08 44400 154000 (2019) 46500 (2017) 87200 48500 51400 80900 126000 143000
2020-09-22 18:00 8.06 44300 154000 (2019) 46500 (2017) 87200 48500 51400 80900 126000 143000
2020-09-22 17:00 8.05 44300 154000 (2019) 46500 (2017) 87200 48500 51400 80900 126000 143000
2020-09-22 16:00 8.11 44600 154000 (2019) 46500 (2017) 87200 48500 51400 80900 126000 143000
2020-09-22 15:00 8.05 44300 154000 (2019) 46500 (2017) 87200 48500 51400 80900 126000 143000
2020-09-22 14:00 8.05 44300 154000 (2019) 46500 (2017) 87200 48500 51400 80900 126000 143000
2020-09-22 13:00 8.07 44400 154000 (2019) 46500 (2017) 87200 48500 51400 80900 126000 143000
2020-09-22 12:00 8.08 44400 154000 (2019) 46500 (2017) 87200 48500 51400 80900 126000 143000
2020-09-22 11:00 8.08 44400 154000 (2019) 46500 (2017) 87200 48500 51400 80900 126000 143000
2020-09-22 10:00 8.08 44400 154000 (2019) 46500 (2017) 87200 48500 51400 80900 126000 143000
2020-09-22 09:00 8.05 44300 154000 (2019) 46500 (2017) 87200 48500 51400 80900 126000 143000
2020-09-22 08:00 8.07 44400 154000 (2019) 46500 (2017) 87200 48500 51400 80900 126000 143000
2020-09-22 07:00 8.08 44400 154000 (2019) 46500 (2017) 87200 48500 51400 80900 126000 143000
2020-09-22 06:00 8.09 44500 154000 (2019) 46500 (2017) 87200 48500 51400 80900 126000 143000
2020-09-22 05:00 8.09 44500 154000 (2019) 46500 (2017) 87200 48500 51400 80900 126000 143000
2020-09-22 04:00 8.07 44400 154000 (2019) 46500 (2017) 87200 48500 51400 80900 126000 143000
2020-09-22 03:00 8.09 44500 154000 (2019) 46500 (2017) 87200 48500 51400 80900 126000 143000
2020-09-22 02:00 8.10 44500 154000 (2019) 46500 (2017) 87200 48500 51400 80900 126000 143000
2020-09-22 01:00 8.09 44500 154000 (2019) 46500 (2017) 87200 48500 51400 80900 126000 143000
2020-09-22 00:00 8.11 44600 154000 (2019) 46500 (2017) 87200 48500 51400 80900 126000 143000
2020-09-21 23:00 8.11 44600 138000 (2019) 47000 (2017) 84400 48900 51700 83000 118000 130000
2020-09-21 22:00 8.14 44700 138000 (2019) 47000 (2017) 84400 48900 51700 83000 118000 130000
2020-09-21 21:00 8.13 44700 138000 (2019) 47000 (2017) 84400 48900 51700 83000 118000 130000
2020-09-21 20:00 8.12 44600 138000 (2019) 47000 (2017) 84400 48900 51700 83000 118000 130000
2020-09-21 19:00 8.15 44800 138000 (2019) 47000 (2017) 84400 48900 51700 83000 118000 130000
2020-09-21 18:00 8.16 44800 138000 (2019) 47000 (2017) 84400 48900 51700 83000 118000 130000
2020-09-21 17:00 8.15 44800 138000 (2019) 47000 (2017) 84400 48900 51700 83000 118000 130000
2020-09-21 16:00 8.16 44800 138000 (2019) 47000 (2017) 84400 48900 51700 83000 118000 130000
2020-09-21 15:00 8.22 45200 138000 (2019) 47000 (2017) 84400 48900 51700 83000 118000 130000
2020-09-21 14:00 8.20 45100 138000 (2019) 47000 (2017) 84400 48900 51700 83000 118000 130000
2020-09-21 13:00 8.24 45300 138000 (2019) 47000 (2017) 84400 48900 51700 83000 118000 130000
2020-09-21 12:00 8.24 45300 138000 (2019) 47000 (2017) 84400 48900 51700 83000 118000 130000
2020-09-21 11:00 8.24 45300 138000 (2019) 47000 (2017) 84400 48900 51700 83000 118000 130000
2020-09-21 10:00 8.25 45300 138000 (2019) 47000 (2017) 84400 48900 51700 83000 118000 130000
2020-09-21 09:00 8.22 45200 138000 (2019) 47000 (2017) 84400 48900 51700 83000 118000 130000
2020-09-21 08:00 8.26 45400 138000 (2019) 47000 (2017) 84400 48900 51700 83000 118000 130000
2020-09-21 07:00 8.22 45200 138000 (2019) 47000 (2017) 84400 48900 51700 83000 118000 130000
2020-09-21 06:00 8.26 45400 138000 (2019) 47000 (2017) 84400 48900 51700 83000 118000 130000
2020-09-21 05:00 8.26 45400 138000 (2019) 47000 (2017) 84400 48900 51700 83000 118000 130000
2020-09-21 04:00 8.26 45400 138000 (2019) 47000 (2017) 84400 48900 51700 83000 118000 130000
2020-09-21 03:00 8.30 45600 138000 (2019) 47000 (2017) 84400 48900 51700 83000 118000 130000
2020-09-21 02:00 8.29 45500 138000 (2019) 47000 (2017) 84400 48900 51700 83000 118000 130000
2020-09-21 01:00 8.31 45600 138000 (2019) 47000 (2017) 84400 48900 51700 83000 118000 130000
2020-09-21 00:00 8.28 45500 138000 (2019) 47000 (2017) 84400 48900 51700 83000 118000 130000
2020-09-20 23:00 8.30 45600 137000 (2019) 47700 (2017) 84700 48700 50300 89100 117000 129000
2020-09-20 22:00 8.29 45500 137000 (2019) 47700 (2017) 84700 48700 50300 89100 117000 129000
2020-09-20 21:00 8.32 45700 137000 (2019) 47700 (2017) 84700 48700 50300 89100 117000 129000
2020-09-20 20:00 8.32 45700 137000 (2019) 47700 (2017) 84700 48700 50300 89100 117000 129000
2020-09-20 19:00 8.33 45700 137000 (2019) 47700 (2017) 84700 48700 50300 89100 117000 129000
2020-09-20 18:00 8.29 45500 137000 (2019) 47700 (2017) 84700 48700 50300 89100 117000 129000
2020-09-20 17:00 8.33 45700 137000 (2019) 47700 (2017) 84700 48700 50300 89100 117000 129000
2020-09-20 16:00 8.30 45600 137000 (2019) 47700 (2017) 84700 48700 50300 89100 117000 129000
2020-09-20 15:00 8.28 45500 137000 (2019) 47700 (2017) 84700 48700 50300 89100 117000 129000
2020-09-20 14:00 8.27 45400 137000 (2019) 47700 (2017) 84700 48700 50300 89100 117000 129000
2020-09-20 13:00 8.28 45500 137000 (2019) 47700 (2017) 84700 48700 50300 89100 117000 129000
2020-09-20 12:00 8.29 45500 137000 (2019) 47700 (2017) 84700 48700 50300 89100 117000 129000
2020-09-20 11:00 8.26 45400 137000 (2019) 47700 (2017) 84700 48700 50300 89100 117000 129000
2020-09-20 10:00 8.28 45500 137000 (2019) 47700 (2017) 84700 48700 50300 89100 117000 129000
2020-09-20 09:00 8.28 45500 137000 (2019) 47700 (2017) 84700 48700 50300 89100 117000 129000
2020-09-20 08:00 8.25 45300 137000 (2019) 47700 (2017) 84700 48700 50300 89100 117000 129000
2020-09-20 07:00 8.23 45200 137000 (2019) 47700 (2017) 84700 48700 50300 89100 117000 129000
2020-09-20 06:00 8.25 45300 137000 (2019) 47700 (2017) 84700 48700 50300 89100 117000 129000
2020-09-20 05:00 8.24 45300 137000 (2019) 47700 (2017) 84700 48700 50300 89100 117000 129000
2020-09-20 04:00 8.25 45300 137000 (2019) 47700 (2017) 84700 48700 50300 89100 117000 129000
2020-09-20 03:00 8.25 45300 137000 (2019) 47700 (2017) 84700 48700 50300 89100 117000 129000
2020-09-20 02:00 8.22 45200 137000 (2019) 47700 (2017) 84700 48700 50300 89100 117000 129000
2020-09-20 01:00 8.23 45200 137000 (2019) 47700 (2017) 84700 48700 50300 89100 117000 129000
2020-09-20 00:00 8.22 45200 137000 (2019) 47700 (2017) 84700 48700 50300 89100 117000 129000
2020-09-19 23:00 8.24 45300 134000 (2019) 47300 (2017) 88300 48600 50500 97300 121000 129000
2020-09-19 22:00 8.24 45300 134000 (2019) 47300 (2017) 88300 48600 50500 97300 121000 129000
2020-09-19 21:00 8.22 45200 134000 (2019) 47300 (2017) 88300 48600 50500 97300 121000 129000
2020-09-19 20:00 8.23 45200 134000 (2019) 47300 (2017) 88300 48600 50500 97300 121000 129000
2020-09-19 19:00 8.23 45200 134000 (2019) 47300 (2017) 88300 48600 50500 97300 121000 129000
2020-09-19 18:00 8.22 45200 134000 (2019) 47300 (2017) 88300 48600 50500 97300 121000 129000
2020-09-19 17:00 8.25 45300 134000 (2019) 47300 (2017) 88300 48600 50500 97300 121000 129000
2020-09-19 16:00 8.21 45100 134000 (2019) 47300 (2017) 88300 48600 50500 97300 121000 129000
2020-09-19 15:00 8.24 45300 134000 (2019) 47300 (2017) 88300 48600 50500 97300 121000 129000
2020-09-19 14:00 8.22 45200 134000 (2019) 47300 (2017) 88300 48600 50500 97300 121000 129000
2020-09-19 13:00 8.22 45200 134000 (2019) 47300 (2017) 88300 48600 50500 97300 121000 129000
2020-09-19 12:00 8.25 45300 134000 (2019) 47300 (2017) 88300 48600 50500 97300 121000 129000
2020-09-19 11:00 8.25 45300 134000 (2019) 47300 (2017) 88300 48600 50500 97300 121000 129000
2020-09-19 10:00 8.23 45200 134000 (2019) 47300 (2017) 88300 48600 50500 97300 121000 129000
2020-09-19 09:00 8.22 45200 134000 (2019) 47300 (2017) 88300 48600 50500 97300 121000 129000
2020-09-19 08:00 8.25 45300 134000 (2019) 47300 (2017) 88300 48600 50500 97300 121000 129000
2020-09-19 07:00 8.26 45400 134000 (2019) 47300 (2017) 88300 48600 50500 97300 121000 129000
2020-09-19 06:00 8.22 45200 134000 (2019) 47300 (2017) 88300 48600 50500 97300 121000 129000
2020-09-19 05:00 8.23 45200 134000 (2019) 47300 (2017) 88300 48600 50500 97300 121000 129000
2020-09-19 04:00 8.26 45400 134000 (2019) 47300 (2017) 88300 48600 50500 97300 121000 129000
2020-09-19 03:00 8.24 45300 134000 (2019) 47300 (2017) 88300 48600 50500 97300 121000 129000
2020-09-19 02:00 8.24 45300 134000 (2019) 47300 (2017) 88300 48600 50500 97300 121000 129000
2020-09-19 01:00 8.27 45400 134000 (2019) 47300 (2017) 88300 48600 50500 97300 121000 129000
2020-09-19 00:00 8.25 45300 134000 (2019) 47300 (2017) 88300 48600 50500 97300 121000 129000
2020-09-18 23:00 8.24 45300 133000 (2019) 48000 (2017) 84400 49000 50400 89700 116000 126000
2020-09-18 22:00 8.26 45400 133000 (2019) 48000 (2017) 84400 49000 50400 89700 116000 126000
2020-09-18 21:00 8.26 45400 133000 (2019) 48000 (2017) 84400 49000 50400 89700 116000 126000
2020-09-18 20:00 8.27 45400 133000 (2019) 48000 (2017) 84400 49000 50400 89700 116000 126000
2020-09-18 19:00 8.26 45400 133000 (2019) 48000 (2017) 84400 49000 50400 89700 116000 126000
2020-09-18 18:00 8.26 45400 133000 (2019) 48000 (2017) 84400 49000 50400 89700 116000 126000
2020-09-18 17:00 8.26 45400 133000 (2019) 48000 (2017) 84400 49000 50400 89700 116000 126000
2020-09-18 16:00 8.25 45300 133000 (2019) 48000 (2017) 84400 49000 50400 89700 116000 126000
2020-09-18 15:00 8.25 45300 133000 (2019) 48000 (2017) 84400 49000 50400 89700 116000 126000
2020-09-18 14:00 8.24 45300 133000 (2019) 48000 (2017) 84400 49000 50400 89700 116000 126000
2020-09-18 13:00 8.28 45500 133000 (2019) 48000 (2017) 84400 49000 50400 89700 116000 126000
2020-09-18 12:00 8.30 45600 133000 (2019) 48000 (2017) 84400 49000 50400 89700 116000 126000
2020-09-18 11:00 8.26 45400 133000 (2019) 48000 (2017) 84400 49000 50400 89700 116000 126000
2020-09-18 10:00 8.28 45500 133000 (2019) 48000 (2017) 84400 49000 50400 89700 116000 126000
2020-09-18 09:00 8.28 45500 133000 (2019) 48000 (2017) 84400 49000 50400 89700 116000 126000
2020-09-18 08:00 8.28 45500 133000 (2019) 48000 (2017) 84400 49000 50400 89700 116000 126000
2020-09-18 07:00 8.28 45500 133000 (2019) 48000 (2017) 84400 49000 50400 89700 116000 126000
2020-09-18 06:00 8.26 45400 133000 (2019) 48000 (2017) 84400 49000 50400 89700 116000 126000
2020-09-18 05:00 8.31 45600 133000 (2019) 48000 (2017) 84400 49000 50400 89700 116000 126000
2020-09-18 04:00 8.26 45400 133000 (2019) 48000 (2017) 84400 49000 50400 89700 116000 126000
2020-09-18 03:00 8.32 45700 133000 (2019) 48000 (2017) 84400 49000 50400 89700 116000 126000
2020-09-18 02:00 8.33 45700 133000 (2019) 48000 (2017) 84400 49000 50400 89700 116000 126000
2020-09-18 01:00 8.28 45500 133000 (2019) 48000 (2017) 84400 49000 50400 89700 116000 126000
2020-09-18 00:00 8.30 45600 133000 (2019) 48000 (2017) 84400 49000 50400 89700 116000 126000
2020-09-17 23:00 8.31 45600 132000 (2019) 45400 (2017) 84300 47100 49500 90600 116000 126000
2020-09-17 22:00 8.32 45700 132000 (2019) 45400 (2017) 84300 47100 49500 90600 116000 126000
2020-09-17 21:00 8.31 45600 132000 (2019) 45400 (2017) 84300 47100 49500 90600 116000 126000
2020-09-17 20:00 8.31 45600 132000 (2019) 45400 (2017) 84300 47100 49500 90600 116000 126000
2020-09-17 19:00 8.33 45700 132000 (2019) 45400 (2017) 84300 47100 49500 90600 116000 126000
2020-09-17 18:00 8.30 45600 132000 (2019) 45400 (2017) 84300 47100 49500 90600 116000 126000
2020-09-17 17:00 8.31 45600 132000 (2019) 45400 (2017) 84300 47100 49500 90600 116000 126000
2020-09-17 16:00 8.28 45500 132000 (2019) 45400 (2017) 84300 47100 49500 90600 116000 126000
2020-09-17 15:00 8.30 45600 132000 (2019) 45400 (2017) 84300 47100 49500 90600 116000 126000
2020-09-17 14:00 8.32 45700 132000 (2019) 45400 (2017) 84300 47100 49500 90600 116000 126000
2020-09-17 13:00 8.30 45600 132000 (2019) 45400 (2017) 84300 47100 49500 90600 116000 126000
2020-09-17 12:00 8.32 45700 132000 (2019) 45400 (2017) 84300 47100 49500 90600 116000 126000
2020-09-17 11:00 8.32 45700 132000 (2019) 45400 (2017) 84300 47100 49500 90600 116000 126000
2020-09-17 10:00 8.32 45700 132000 (2019) 45400 (2017) 84300 47100 49500 90600 116000 126000
2020-09-17 09:00 8.33 45700 132000 (2019) 45400 (2017) 84300 47100 49500 90600 116000 126000
2020-09-17 08:00 8.34 45800 132000 (2019) 45400 (2017) 84300 47100 49500 90600 116000 126000
2020-09-17 07:00 8.34 45800 132000 (2019) 45400 (2017) 84300 47100 49500 90600 116000 126000
2020-09-17 06:00 8.31 45600 132000 (2019) 45400 (2017) 84300 47100 49500 90600 116000 126000
2020-09-17 05:00 8.35 45900 132000 (2019) 45400 (2017) 84300 47100 49500 90600 116000 126000
2020-09-17 04:00 8.34 45800 132000 (2019) 45400 (2017) 84300 47100 49500 90600 116000 126000
2020-09-17 03:00 8.33 45700 132000 (2019) 45400 (2017) 84300 47100 49500 90600 116000 126000
2020-09-17 02:00 8.34 45800 132000 (2019) 45400 (2017) 84300 47100 49500 90600 116000 126000
2020-09-17 01:00 8.35 45900 132000 (2019) 45400 (2017) 84300 47100 49500 90600 116000 126000
2020-09-17 00:00 8.36 45900 132000 (2019) 45400 (2017) 84300 47100 49500 90600 116000 126000

A total of 187 rows are displayed for years 2015 through 2019.